sensor_id;sensor_type;location;lat;lon;timestamp;P1;durP1;ratioP1;P2;durP2;ratioP2
39778;SDS011;25454;49.878;8.618;2022-12-10T00:02:01;23.70;;;16.80;;
39778;SDS011;25454;49.878;8.618;2022-12-10T00:07:01;23.63;;;16.33;;
39778;SDS011;25454;49.878;8.618;2022-12-10T00:12:02;23.43;;;17.33;;
39778;SDS011;25454;49.878;8.618;2022-12-10T00:17:03;23.57;;;16.60;;
39778;SDS011;25454;49.878;8.618;2022-12-10T00:22:03;26.97;;;17.40;;
39778;SDS011;25454;49.878;8.618;2022-12-10T00:27:04;24.67;;;16.00;;
39778;SDS011;25454;49.878;8.618;2022-12-10T00:32:04;26.03;;;17.40;;
39778;SDS011;25454;49.878;8.618;2022-12-10T00:37:06;27.27;;;18.67;;
39778;SDS011;25454;49.878;8.618;2022-12-10T00:42:06;24.27;;;17.80;;
39778;SDS011;25454;49.878;8.618;2022-12-10T00:47:07;26.20;;;17.80;;
39778;SDS011;25454;49.878;8.618;2022-12-10T00:52:07;23.70;;;16.40;;
39778;SDS011;25454;49.878;8.618;2022-12-10T00:57:08;25.33;;;17.43;;
39778;SDS011;25454;49.878;8.618;2022-12-10T01:02:08;25.90;;;17.63;;
39778;SDS011;25454;49.878;8.618;2022-12-10T01:07:09;23.77;;;16.93;;
39778;SDS011;25454;49.878;8.618;2022-12-10T01:12:10;23.83;;;16.20;;
39778;SDS011;25454;49.878;8.618;2022-12-10T01:17:10;28.07;;;17.77;;
39778;SDS011;25454;49.878;8.618;2022-12-10T01:22:11;25.60;;;16.77;;
39778;SDS011;25454;49.878;8.618;2022-12-10T01:27:11;25.73;;;16.60;;
39778;SDS011;25454;49.878;8.618;2022-12-10T01:32:12;26.30;;;17.30;;
39778;SDS011;25454;49.878;8.618;2022-12-10T01:37:13;28.13;;;17.77;;
39778;SDS011;25454;49.878;8.618;2022-12-10T01:42:13;27.27;;;18.23;;
39778;SDS011;25454;49.878;8.618;2022-12-10T01:47:14;25.80;;;17.37;;
39778;SDS011;25454;49.878;8.618;2022-12-10T01:52:14;29.13;;;17.73;;
39778;SDS011;25454;49.878;8.618;2022-12-10T01:57:25;25.87;;;17.40;;
39778;SDS011;25454;49.878;8.618;2022-12-10T02:02:44;26.47;;;17.17;;
39778;SDS011;25454;49.878;8.618;2022-12-10T02:13:28;26.00;;;17.37;;
39778;SDS011;25454;49.878;8.618;2022-12-10T02:18:48;23.37;;;15.93;;
39778;SDS011;25454;49.878;8.618;2022-12-10T02:24:00;23.30;;;16.67;;
39778;SDS011;25454;49.878;8.618;2022-12-10T02:29:13;23.70;;;15.70;;
39778;SDS011;25454;49.878;8.618;2022-12-10T02:34:17;22.40;;;14.37;;
39778;SDS011;25454;49.878;8.618;2022-12-10T02:39:24;23.53;;;16.17;;
39778;SDS011;25454;49.878;8.618;2022-12-10T02:44:27;22.90;;;15.83;;
39778;SDS011;25454;49.878;8.618;2022-12-10T02:49:30;20.80;;;15.07;;
39778;SDS011;25454;49.878;8.618;2022-12-10T02:54:35;22.27;;;14.70;;
39778;SDS011;25454;49.878;8.618;2022-12-10T02:59:53;22.87;;;15.10;;
39778;SDS011;25454;49.878;8.618;2022-12-10T03:05:02;21.67;;;15.13;;
39778;SDS011;25454;49.878;8.618;2022-12-10T03:10:24;21.73;;;15.30;;
39778;SDS011;25454;49.878;8.618;2022-12-10T03:15:41;22.33;;;14.77;;
39778;SDS011;25454;49.878;8.618;2022-12-10T03:20:44;18.73;;;14.13;;
39778;SDS011;25454;49.878;8.618;2022-12-10T03:25:47;20.07;;;13.90;;
39778;SDS011;25454;49.878;8.618;2022-12-10T03:30:49;18.90;;;14.43;;
39778;SDS011;25454;49.878;8.618;2022-12-10T03:35:51;18.90;;;13.60;;
39778;SDS011;25454;49.878;8.618;2022-12-10T03:40:52;17.87;;;12.77;;
39778;SDS011;25454;49.878;8.618;2022-12-10T03:45:53;18.80;;;13.00;;
39778;SDS011;25454;49.878;8.618;2022-12-10T03:50:53;18.97;;;13.70;;
39778;SDS011;25454;49.878;8.618;2022-12-10T03:55:54;20.07;;;13.67;;
39778;SDS011;25454;49.878;8.618;2022-12-10T04:00:54;19.70;;;13.63;;
39778;SDS011;25454;49.878;8.618;2022-12-10T04:06:00;17.97;;;12.73;;
39778;SDS011;25454;49.878;8.618;2022-12-10T04:11:08;19.27;;;13.07;;
39778;SDS011;25454;49.878;8.618;2022-12-10T04:16:10;18.27;;;12.53;;
39778;SDS011;25454;49.878;8.618;2022-12-10T04:21:30;19.60;;;12.73;;
39778;SDS011;25454;49.878;8.618;2022-12-10T04:26:50;18.20;;;12.90;;
39778;SDS011;25454;49.878;8.618;2022-12-10T04:31:54;18.67;;;13.13;;
39778;SDS011;25454;49.878;8.618;2022-12-10T04:36:56;18.30;;;13.57;;
39778;SDS011;25454;49.878;8.618;2022-12-10T04:41:58;19.10;;;13.13;;
39778;SDS011;25454;49.878;8.618;2022-12-10T04:47:00;19.67;;;13.63;;
39778;SDS011;25454;49.878;8.618;2022-12-10T04:52:01;16.43;;;12.20;;
39778;SDS011;25454;49.878;8.618;2022-12-10T04:57:02;18.00;;;12.83;;
39778;SDS011;25454;49.878;8.618;2022-12-10T05:02:03;17.23;;;12.43;;
39778;SDS011;25454;49.878;8.618;2022-12-10T05:07:04;17.03;;;12.20;;
39778;SDS011;25454;49.878;8.618;2022-12-10T05:12:05;18.50;;;12.87;;
39778;SDS011;25454;49.878;8.618;2022-12-10T05:17:05;16.57;;;12.40;;
39778;SDS011;25454;49.878;8.618;2022-12-10T05:22:07;17.53;;;12.40;;
39778;SDS011;25454;49.878;8.618;2022-12-10T05:27:47;18.00;;;13.17;;
39778;SDS011;25454;49.878;8.618;2022-12-10T05:32:47;15.73;;;12.30;;
39778;SDS011;25454;49.878;8.618;2022-12-10T05:37:48;16.00;;;12.27;;
39778;SDS011;25454;49.878;8.618;2022-12-10T05:42:48;14.87;;;11.33;;
39778;SDS011;25454;49.878;8.618;2022-12-10T05:47:49;16.20;;;11.80;;
39778;SDS011;25454;49.878;8.618;2022-12-10T05:52:50;13.67;;;10.77;;
39778;SDS011;25454;49.878;8.618;2022-12-10T05:57:51;14.10;;;10.33;;
39778;SDS011;25454;49.878;8.618;2022-12-10T06:02:51;15.10;;;11.03;;
39778;SDS011;25454;49.878;8.618;2022-12-10T06:07:52;17.20;;;11.40;;
39778;SDS011;25454;49.878;8.618;2022-12-10T06:12:53;15.47;;;11.20;;
39778;SDS011;25454;49.878;8.618;2022-12-10T06:17:54;21.77;;;14.03;;
39778;SDS011;25454;49.878;8.618;2022-12-10T06:22:55;17.47;;;11.57;;
39778;SDS011;25454;49.878;8.618;2022-12-10T06:27:56;16.37;;;11.63;;
39778;SDS011;25454;49.878;8.618;2022-12-10T06:32:56;17.37;;;11.20;;
39778;SDS011;25454;49.878;8.618;2022-12-10T06:37:57;16.80;;;11.53;;
39778;SDS011;25454;49.878;8.618;2022-12-10T06:42:57;15.70;;;11.13;;
39778;SDS011;25454;49.878;8.618;2022-12-10T06:47:58;16.07;;;11.80;;
39778;SDS011;25454;49.878;8.618;2022-12-10T06:52:59;17.00;;;12.30;;
39778;SDS011;25454;49.878;8.618;2022-12-10T06:57:59;13.93;;;11.30;;
39778;SDS011;25454;49.878;8.618;2022-12-10T07:03:00;14.23;;;11.17;;
39778;SDS011;25454;49.878;8.618;2022-12-10T07:08:00;14.00;;;10.77;;
39778;SDS011;25454;49.878;8.618;2022-12-10T07:13:01;15.73;;;11.03;;
39778;SDS011;25454;49.878;8.618;2022-12-10T07:18:05;14.77;;;11.17;;
39778;SDS011;25454;49.878;8.618;2022-12-10T07:23:05;18.13;;;12.57;;
39778;SDS011;25454;49.878;8.618;2022-12-10T07:28:06;14.40;;;9.67;;
39778;SDS011;25454;49.878;8.618;2022-12-10T07:33:07;13.37;;;10.07;;
39778;SDS011;25454;49.878;8.618;2022-12-10T07:38:07;15.40;;;11.43;;
39778;SDS011;25454;49.878;8.618;2022-12-10T07:43:08;14.70;;;11.37;;
39778;SDS011;25454;49.878;8.618;2022-12-10T07:48:09;14.20;;;10.53;;
39778;SDS011;25454;49.878;8.618;2022-12-10T07:53:10;15.00;;;11.03;;
39778;SDS011;25454;49.878;8.618;2022-12-10T07:58:10;17.30;;;10.50;;
39778;SDS011;25454;49.878;8.618;2022-12-10T08:03:11;12.40;;;9.97;;
39778;SDS011;25454;49.878;8.618;2022-12-10T08:08:12;14.63;;;10.80;;
39778;SDS011;25454;49.878;8.618;2022-12-10T08:13:12;13.13;;;10.23;;
39778;SDS011;25454;49.878;8.618;2022-12-10T08:18:13;14.47;;;10.47;;
39778;SDS011;25454;49.878;8.618;2022-12-10T08:23:14;15.60;;;10.30;;
39778;SDS011;25454;49.878;8.618;2022-12-10T08:28:14;13.53;;;10.43;;
39778;SDS011;25454;49.878;8.618;2022-12-10T08:33:15;14.40;;;11.20;;
39778;SDS011;25454;49.878;8.618;2022-12-10T08:38:17;15.27;;;10.40;;
39778;SDS011;25454;49.878;8.618;2022-12-10T08:43:17;12.90;;;9.67;;
39778;SDS011;25454;49.878;8.618;2022-12-10T08:48:18;13.47;;;10.03;;
39778;SDS011;25454;49.878;8.618;2022-12-10T08:53:19;11.80;;;9.87;;
39778;SDS011;25454;49.878;8.618;2022-12-10T08:58:20;13.40;;;10.37;;
39778;SDS011;25454;49.878;8.618;2022-12-10T09:03:21;13.87;;;9.73;;
39778;SDS011;25454;49.878;8.618;2022-12-10T09:08:21;12.53;;;9.97;;
39778;SDS011;25454;49.878;8.618;2022-12-10T09:13:22;11.83;;;9.77;;
39778;SDS011;25454;49.878;8.618;2022-12-10T09:18:22;12.70;;;10.07;;
39778;SDS011;25454;49.878;8.618;2022-12-10T09:23:23;12.67;;;9.83;;
39778;SDS011;25454;49.878;8.618;2022-12-10T09:28:24;12.13;;;9.77;;
39778;SDS011;25454;49.878;8.618;2022-12-10T09:33:25;11.50;;;8.93;;
39778;SDS011;25454;49.878;8.618;2022-12-10T09:38:26;12.17;;;9.67;;
39778;SDS011;25454;49.878;8.618;2022-12-10T09:53:39;13.80;;;10.10;;
39778;SDS011;25454;49.878;8.618;2022-12-10T09:58:42;9.93;;;8.43;;
39778;SDS011;25454;49.878;8.618;2022-12-10T10:03:46;11.10;;;9.10;;
39778;SDS011;25454;49.878;8.618;2022-12-10T10:08:56;11.23;;;9.40;;
39778;SDS011;25454;49.878;8.618;2022-12-10T10:14:13;11.77;;;9.93;;
39778;SDS011;25454;49.878;8.618;2022-12-10T10:19:26;12.63;;;9.67;;
39778;SDS011;25454;49.878;8.618;2022-12-10T10:24:37;11.17;;;9.37;;
39778;SDS011;25454;49.878;8.618;2022-12-10T10:29:45;15.03;;;10.27;;
39778;SDS011;25454;49.878;8.618;2022-12-10T10:34:54;12.07;;;9.97;;
39778;SDS011;25454;49.878;8.618;2022-12-10T10:39:57;12.20;;;10.30;;
39778;SDS011;25454;49.878;8.618;2022-12-10T10:44:58;14.73;;;11.37;;
39778;SDS011;25454;49.878;8.618;2022-12-10T10:49:59;13.27;;;10.67;;
39778;SDS011;25454;49.878;8.618;2022-12-10T10:55:00;13.13;;;10.93;;
39778;SDS011;25454;49.878;8.618;2022-12-10T11:05:22;12.60;;;10.30;;
39778;SDS011;25454;49.878;8.618;2022-12-10T11:10:28;13.33;;;10.83;;
39778;SDS011;25454;49.878;8.618;2022-12-10T11:20:34;14.57;;;11.63;;
39778;SDS011;25454;49.878;8.618;2022-12-10T11:30:58;12.93;;;10.47;;
39778;SDS011;25454;49.878;8.618;2022-12-10T11:36:16;13.23;;;11.37;;
39778;SDS011;25454;49.878;8.618;2022-12-10T11:41:49;15.13;;;11.00;;
39778;SDS011;25454;49.878;8.618;2022-12-10T11:58:00;12.43;;;10.00;;
39778;SDS011;25454;49.878;8.618;2022-12-10T12:14:16;12.87;;;10.40;;
39778;SDS011;25454;49.878;8.618;2022-12-10T12:19:34;14.03;;;10.83;;
39778;SDS011;25454;49.878;8.618;2022-12-10T12:24:40;14.17;;;11.70;;
39778;SDS011;25454;49.878;8.618;2022-12-10T12:29:59;11.73;;;9.80;;
39778;SDS011;25454;49.878;8.618;2022-12-10T12:35:02;13.00;;;10.97;;
39778;SDS011;25454;49.878;8.618;2022-12-10T12:40:36;13.00;;;10.37;;
39778;SDS011;25454;49.878;8.618;2022-12-10T12:45:48;12.23;;;9.93;;
39778;SDS011;25454;49.878;8.618;2022-12-10T12:50:51;12.63;;;10.27;;
39778;SDS011;25454;49.878;8.618;2022-12-10T13:01:12;13.47;;;10.80;;
39778;SDS011;25454;49.878;8.618;2022-12-10T13:11:33;13.20;;;9.97;;
39778;SDS011;25454;49.878;8.618;2022-12-10T13:27:03;13.90;;;9.27;;
39778;SDS011;25454;49.878;8.618;2022-12-10T13:32:04;11.30;;;9.33;;
39778;SDS011;25454;49.878;8.618;2022-12-10T13:37:26;13.97;;;9.87;;
39778;SDS011;25454;49.878;8.618;2022-12-10T13:42:31;12.40;;;10.03;;
39778;SDS011;25454;49.878;8.618;2022-12-10T13:48:15;13.30;;;10.67;;
39778;SDS011;25454;49.878;8.618;2022-12-10T13:59:15;11.40;;;9.00;;
39778;SDS011;25454;49.878;8.618;2022-12-10T14:04:47;12.90;;;9.43;;
39778;SDS011;25454;49.878;8.618;2022-12-10T14:10:31;12.17;;;9.33;;
39778;SDS011;25454;49.878;8.618;2022-12-10T14:15:34;12.77;;;8.63;;
39778;SDS011;25454;49.878;8.618;2022-12-10T14:20:38;11.37;;;9.63;;
39778;SDS011;25454;49.878;8.618;2022-12-10T14:25:44;12.83;;;9.57;;
39778;SDS011;25454;49.878;8.618;2022-12-10T14:30:48;11.63;;;9.17;;
39778;SDS011;25454;49.878;8.618;2022-12-10T14:35:50;12.67;;;9.93;;
39778;SDS011;25454;49.878;8.618;2022-12-10T14:40:52;10.20;;;8.63;;
39778;SDS011;25454;49.878;8.618;2022-12-10T14:45:55;10.97;;;9.13;;
39778;SDS011;25454;49.878;8.618;2022-12-10T14:51:04;12.40;;;9.30;;
39778;SDS011;25454;49.878;8.618;2022-12-10T14:56:11;11.07;;;9.00;;
39778;SDS011;25454;49.878;8.618;2022-12-10T15:01:23;11.20;;;8.60;;
39778;SDS011;25454;49.878;8.618;2022-12-10T15:06:32;12.07;;;8.60;;
39778;SDS011;25454;49.878;8.618;2022-12-10T15:11:35;11.77;;;8.90;;
39778;SDS011;25454;49.878;8.618;2022-12-10T15:16:39;13.60;;;10.00;;
39778;SDS011;25454;49.878;8.618;2022-12-10T15:21:44;12.43;;;9.50;;
39778;SDS011;25454;49.878;8.618;2022-12-10T15:26:47;12.23;;;9.87;;
39778;SDS011;25454;49.878;8.618;2022-12-10T15:31:49;13.60;;;9.73;;
39778;SDS011;25454;49.878;8.618;2022-12-10T15:36:59;15.47;;;10.07;;
39778;SDS011;25454;49.878;8.618;2022-12-10T15:42:06;12.57;;;9.90;;
39778;SDS011;25454;49.878;8.618;2022-12-10T15:52:20;12.47;;;10.20;;
39778;SDS011;25454;49.878;8.618;2022-12-10T15:57:30;11.93;;;9.10;;
39778;SDS011;25454;49.878;8.618;2022-12-10T16:07:51;13.73;;;10.27;;
39778;SDS011;25454;49.878;8.618;2022-12-10T16:12:58;12.63;;;9.70;;
39778;SDS011;25454;49.878;8.618;2022-12-10T16:18:02;13.77;;;10.60;;
39778;SDS011;25454;49.878;8.618;2022-12-10T16:23:03;11.17;;;9.40;;
39778;SDS011;25454;49.878;8.618;2022-12-10T16:28:05;11.80;;;9.33;;
39778;SDS011;25454;49.878;8.618;2022-12-10T16:33:06;13.90;;;10.63;;
39778;SDS011;25454;49.878;8.618;2022-12-10T16:38:07;12.47;;;9.83;;
39778;SDS011;25454;49.878;8.618;2022-12-10T16:43:11;15.60;;;10.47;;
39778;SDS011;25454;49.878;8.618;2022-12-10T16:48:18;11.80;;;9.67;;
39778;SDS011;25454;49.878;8.618;2022-12-10T16:53:24;12.27;;;9.60;;
39778;SDS011;25454;49.878;8.618;2022-12-10T16:58:25;11.03;;;9.27;;
39778;SDS011;25454;49.878;8.618;2022-12-10T17:03:26;13.03;;;9.90;;
39778;SDS011;25454;49.878;8.618;2022-12-10T17:08:30;15.60;;;11.33;;
39778;SDS011;25454;49.878;8.618;2022-12-10T17:13:33;15.43;;;11.43;;
39778;SDS011;25454;49.878;8.618;2022-12-10T17:18:35;13.03;;;10.13;;
39778;SDS011;25454;49.878;8.618;2022-12-10T17:23:36;13.20;;;10.43;;
39778;SDS011;25454;49.878;8.618;2022-12-10T17:28:36;13.10;;;10.17;;
39778;SDS011;25454;49.878;8.618;2022-12-10T17:33:37;14.27;;;10.93;;
39778;SDS011;25454;49.878;8.618;2022-12-10T17:38:38;13.90;;;10.73;;
39778;SDS011;25454;49.878;8.618;2022-12-10T17:43:38;14.77;;;11.53;;
39778;SDS011;25454;49.878;8.618;2022-12-10T17:48:39;15.50;;;11.00;;
39778;SDS011;25454;49.878;8.618;2022-12-10T17:53:40;15.37;;;11.17;;
39778;SDS011;25454;49.878;8.618;2022-12-10T17:58:42;15.70;;;11.63;;
39778;SDS011;25454;49.878;8.618;2022-12-10T18:03:43;17.57;;;12.17;;
39778;SDS011;25454;49.878;8.618;2022-12-10T18:08:47;14.90;;;11.33;;
39778;SDS011;25454;49.878;8.618;2022-12-10T18:13:48;15.03;;;11.90;;
39778;SDS011;25454;49.878;8.618;2022-12-10T18:18:49;16.53;;;11.37;;
39778;SDS011;25454;49.878;8.618;2022-12-10T18:23:50;16.27;;;12.50;;
39778;SDS011;25454;49.878;8.618;2022-12-10T18:28:52;19.97;;;11.43;;
39778;SDS011;25454;49.878;8.618;2022-12-10T18:34:02;15.20;;;11.03;;
39778;SDS011;25454;49.878;8.618;2022-12-10T18:44:19;14.23;;;11.33;;
39778;SDS011;25454;49.878;8.618;2022-12-10T18:49:23;16.47;;;12.13;;
39778;SDS011;25454;49.878;8.618;2022-12-10T18:54:24;17.17;;;11.37;;
39778;SDS011;25454;49.878;8.618;2022-12-10T18:59:28;16.33;;;11.47;;
39778;SDS011;25454;49.878;8.618;2022-12-10T19:04:28;17.30;;;11.83;;
39778;SDS011;25454;49.878;8.618;2022-12-10T19:09:29;18.17;;;12.80;;
39778;SDS011;25454;49.878;8.618;2022-12-10T19:14:31;18.27;;;12.63;;
39778;SDS011;25454;49.878;8.618;2022-12-10T19:19:32;19.57;;;12.97;;
39778;SDS011;25454;49.878;8.618;2022-12-10T19:24:32;17.80;;;12.57;;
39778;SDS011;25454;49.878;8.618;2022-12-10T19:29:33;21.77;;;13.43;;
39778;SDS011;25454;49.878;8.618;2022-12-10T19:34:34;17.67;;;13.27;;
39778;SDS011;25454;49.878;8.618;2022-12-10T19:39:35;18.43;;;13.63;;
39778;SDS011;25454;49.878;8.618;2022-12-10T19:44:35;19.27;;;14.07;;
39778;SDS011;25454;49.878;8.618;2022-12-10T19:49:36;19.07;;;13.57;;
39778;SDS011;25454;49.878;8.618;2022-12-10T19:54:36;20.33;;;13.57;;
39778;SDS011;25454;49.878;8.618;2022-12-10T19:59:37;20.10;;;14.27;;
39778;SDS011;25454;49.878;8.618;2022-12-10T20:04:38;21.23;;;13.87;;
39778;SDS011;25454;49.878;8.618;2022-12-10T20:09:38;22.60;;;14.33;;
39778;SDS011;25454;49.878;8.618;2022-12-10T20:14:39;21.10;;;13.77;;
39778;SDS011;25454;49.878;8.618;2022-12-10T20:19:39;20.50;;;14.03;;
39778;SDS011;25454;49.878;8.618;2022-12-10T20:24:40;24.20;;;16.73;;
39778;SDS011;25454;49.878;8.618;2022-12-10T20:29:41;21.47;;;14.23;;
39778;SDS011;25454;49.878;8.618;2022-12-10T20:34:42;24.00;;;15.53;;
39778;SDS011;25454;49.878;8.618;2022-12-10T20:39:43;25.23;;;15.73;;
39778;SDS011;25454;49.878;8.618;2022-12-10T20:44:43;23.43;;;16.70;;
39778;SDS011;25454;49.878;8.618;2022-12-10T20:49:44;26.10;;;16.33;;
39778;SDS011;25454;49.878;8.618;2022-12-10T20:54:44;26.00;;;17.10;;
39778;SDS011;25454;49.878;8.618;2022-12-10T20:59:45;26.33;;;16.73;;
39778;SDS011;25454;49.878;8.618;2022-12-10T21:04:45;26.40;;;16.00;;
39778;SDS011;25454;49.878;8.618;2022-12-10T21:09:46;36.30;;;20.07;;
39778;SDS011;25454;49.878;8.618;2022-12-10T21:14:46;30.13;;;19.30;;
39778;SDS011;25454;49.878;8.618;2022-12-10T21:19:47;23.07;;;15.97;;
39778;SDS011;25454;49.878;8.618;2022-12-10T21:24:47;24.37;;;16.43;;
39778;SDS011;25454;49.878;8.618;2022-12-10T21:29:48;25.53;;;16.83;;
39778;SDS011;25454;49.878;8.618;2022-12-10T21:34:49;24.13;;;16.50;;
39778;SDS011;25454;49.878;8.618;2022-12-10T21:39:49;24.10;;;17.40;;
39778;SDS011;25454;49.878;8.618;2022-12-10T21:44:53;23.43;;;15.47;;
39778;SDS011;25454;49.878;8.618;2022-12-10T21:49:53;26.23;;;16.83;;
39778;SDS011;25454;49.878;8.618;2022-12-10T21:54:54;25.33;;;16.33;;
39778;SDS011;25454;49.878;8.618;2022-12-10T21:59:54;24.80;;;17.00;;
39778;SDS011;25454;49.878;8.618;2022-12-10T22:04:56;24.73;;;17.27;;
39778;SDS011;25454;49.878;8.618;2022-12-10T22:09:57;24.63;;;16.57;;
39778;SDS011;25454;49.878;8.618;2022-12-10T22:14:58;25.43;;;16.97;;
39778;SDS011;25454;49.878;8.618;2022-12-10T22:19:59;25.77;;;16.33;;
39778;SDS011;25454;49.878;8.618;2022-12-10T22:24:59;25.37;;;16.20;;
39778;SDS011;25454;49.878;8.618;2022-12-10T22:30:01;24.67;;;16.90;;
39778;SDS011;25454;49.878;8.618;2022-12-10T22:35:03;24.73;;;17.20;;
39778;SDS011;25454;49.878;8.618;2022-12-10T22:40:05;22.77;;;15.53;;
39778;SDS011;25454;49.878;8.618;2022-12-10T22:45:06;27.63;;;16.60;;
39778;SDS011;25454;49.878;8.618;2022-12-10T22:50:08;34.57;;;22.27;;
39778;SDS011;25454;49.878;8.618;2022-12-10T22:55:09;31.77;;;20.30;;
39778;SDS011;25454;49.878;8.618;2022-12-10T23:00:10;26.07;;;18.10;;
39778;SDS011;25454;49.878;8.618;2022-12-10T23:05:15;32.20;;;20.13;;
39778;SDS011;25454;49.878;8.618;2022-12-10T23:10:16;28.33;;;18.80;;
39778;SDS011;25454;49.878;8.618;2022-12-10T23:15:17;24.23;;;16.30;;
39778;SDS011;25454;49.878;8.618;2022-12-10T23:20:17;26.80;;;17.13;;
39778;SDS011;25454;49.878;8.618;2022-12-10T23:25:18;25.53;;;17.90;;
39778;SDS011;25454;49.878;8.618;2022-12-10T23:30:19;34.30;;;21.30;;
39778;SDS011;25454;49.878;8.618;2022-12-10T23:35:19;40.13;;;23.77;;
39778;SDS011;25454;49.878;8.618;2022-12-10T23:40:20;30.83;;;20.03;;
39778;SDS011;25454;49.878;8.618;2022-12-10T23:45:21;32.37;;;19.67;;
39778;SDS011;25454;49.878;8.618;2022-12-10T23:50:22;28.73;;;18.37;;
39778;SDS011;25454;49.878;8.618;2022-12-10T23:55:24;28.43;;;19.30;;
